Time;durP1;ratioP1;P1;durP2;ratioP2;P2;SDS_P1;SDS_P2;PMS_P1;PMS_P2;Temp;Humidity;BMP_temperature;BMP_pressure;BME280_temperature;BME280_humidity;BME280_pressure;Samples;Min_cycle;Max_cycle;Signal;HPM_P1;HPM_P2
2023/07/18 00:01:30;;;;;;;1.38;1.27;;;;;;;;;;6151039;23;20199;-92
2023/07/18 00:03:59;;;;;;;1.10;1.05;;;;;;;;;;6151455;23;20155;-92
2023/07/18 00:06:27;;;;;;;1.25;1.25;;;;;;;;;;6151063;23;20182;-94
2023/07/18 00:08:54;;;;;;;1.42;1.33;;;;;;;;;;6150589;23;20187;-92
2023/07/18 00:11:22;;;;;;;1.30;1.20;;;;;;;;;;6149994;23;20192;-94
2023/07/18 00:13:50;;;;;;;1.23;1.13;;;;;;;;;;6151236;23;20160;-92
2023/07/18 00:16:17;;;;;;;1.25;1.15;;;;;;;;;;6154767;23;20187;-91
2023/07/18 00:18:45;;;;;;;1.48;1.35;;;;;;;;;;6154867;23;20168;-92
2023/07/18 00:21:14;;;;;;;1.40;1.30;;;;;;;;;;6153927;23;20204;-93
2023/07/18 00:23:41;;;;;;;1.45;1.30;;;;;;;;;;6151944;23;20179;-93
2023/07/18 00:26:09;;;;;;;1.38;1.27;;;;;;;;;;6151959;23;20160;-95
2023/07/18 00:28:37;;;;;;;1.45;1.35;;;;;;;;;;6152073;23;20176;-93
2023/07/18 00:31:05;;;;;;;1.20;1.13;;;;;;;;;;6151193;23;20243;-91
2023/07/18 00:33:32;;;;;;;1.50;1.40;;;;;;;;;;6152537;23;20176;-92
2023/07/18 00:36:00;;;;;;;1.13;1.08;;;;;;;;;;6151169;23;20190;-92
2023/07/18 00:38:29;;;;;;;1.20;1.10;;;;;;;;;;6154593;23;20203;-90
2023/07/18 00:40:57;;;;;;;1.20;1.10;;;;;;;;;;6154362;23;20182;-93
2023/07/18 00:43:24;;;;;;;1.25;1.15;;;;;;;;;;6154532;23;20156;-94
2023/07/18 00:45:52;;;;;;;0.90;0.90;;;;;;;;;;6154679;23;20191;-90
2023/07/18 00:48:19;;;;;;;1.60;1.25;;;;;;;;;;6154584;23;20171;-92
2023/07/18 00:50:47;;;;;;;1.13;1.10;;;;;;;;;;6151539;23;20191;-94
2023/07/18 00:53:15;;;;;;;1.30;1.20;;;;;;;;;;6152330;23;20171;-92
2023/07/18 00:55:44;;;;;;;1.45;1.23;;;;;;;;;;6151926;23;20195;-93
2023/07/18 00:58:12;;;;;;;1.83;1.60;;;;;;;;;;6151792;23;20172;-94
2023/07/18 01:00:40;;;;;;;1.40;1.30;;;;;;;;;;6151144;23;20196;-93
2023/07/18 01:03:07;;;;;;;1.48;1.38;;;;;;;;;;6149966;23;20190;-92
2023/07/18 01:05:35;;;;;;;1.10;1.00;;;;;;;;;;6150646;23;20176;-91
2023/07/18 01:08:03;;;;;;;0.90;0.90;;;;;;;;;;6149837;23;20176;-91
2023/07/18 01:10:30;;;;;;;1.25;1.15;;;;;;;;;;6149327;23;20195;-91
2023/07/18 01:13:01;;;;;;;0.85;0.85;;;;;;;;;;6149768;23;20163;-92
2023/07/18 01:15:31;;;;;;;1.20;1.10;;;;;;;;;;6150416;23;20220;-91
2023/07/18 01:18:01;;;;;;;0.90;0.90;;;;;;;;;;6149405;23;20164;-90
2023/07/18 01:20:30;;;;;;;1.58;1.20;;;;;;;;;;6149859;23;20202;-92
2023/07/18 01:23:00;;;;;;;1.58;1.48;;;;;;;;;;6150939;23;20176;-91
2023/07/18 01:25:29;;;;;;;1.20;1.20;;;;;;;;;;6152642;23;20176;-91
2023/07/18 01:27:59;;;;;;;1.48;1.38;;;;;;;;;;6151646;23;20187;-91
2023/07/18 01:30:29;;;;;;;1.83;1.35;;;;;;;;;;6150403;23;20254;-91
2023/07/18 01:32:58;;;;;;;1.40;1.30;;;;;;;;;;6150993;23;20198;-91
2023/07/18 01:35:27;;;;;;;1.27;1.17;;;;;;;;;;6150719;23;20199;-91
2023/07/18 01:37:56;;;;;;;1.20;1.10;;;;;;;;;;6151004;23;20151;-92
2023/07/18 01:40:25;;;;;;;1.95;1.67;;;;;;;;;;6151048;23;20206;-93
2023/07/18 01:42:55;;;;;;;1.27;0.93;;;;;;;;;;6151883;23;20223;-91
2023/07/18 01:45:24;;;;;;;1.38;1.27;;;;;;;;;;6152361;23;20176;-92
2023/07/18 01:47:52;;;;;;;1.20;1.10;;;;;;;;;;6151294;23;20187;-92
2023/07/18 01:50:21;;;;;;;1.00;1.00;;;;;;;;;;6151099;23;20184;-91
2023/07/18 01:52:48;;;;;;;1.45;1.25;;;;;;;;;;6151832;23;20175;-90
2023/07/18 01:55:16;;;;;;;1.30;1.20;;;;;;;;;;6151545;23;20203;-93
2023/07/18 01:57:47;;;;;;;1.17;0.80;;;;;;;;;;6152478;23;20164;-92
2023/07/18 02:00:19;;;;;;;1.90;1.67;;;;;;;;;;6152116;23;20192;-93
2023/07/18 02:02:48;;;;;;;0.98;0.90;;;;;;;;;;6150935;23;20195;-90
2023/07/18 02:05:18;;;;;;;1.27;1.17;;;;;;;;;;6150268;23;20180;-92
2023/07/18 02:07:46;;;;;;;1.50;1.40;;;;;;;;;;6151231;23;20175;-92
2023/07/18 02:10:15;;;;;;;1.60;1.23;;;;;;;;;;6151043;23;20192;-91
2023/07/18 02:12:43;;;;;;;1.08;1.08;;;;;;;;;;6151918;23;20202;-91
2023/07/18 02:15:14;;;;;;;1.00;1.00;;;;;;;;;;6152072;23;20155;-91
2023/07/18 02:17:42;;;;;;;1.10;1.10;;;;;;;;;;6153058;23;20176;-93
2023/07/18 02:20:11;;;;;;;1.02;1.00;;;;;;;;;;6152466;23;20196;-91
2023/07/18 02:22:41;;;;;;;1.30;1.20;;;;;;;;;;6152715;23;20168;-92
2023/07/18 02:25:10;;;;;;;1.00;1.00;;;;;;;;;;6152423;23;20191;-92
2023/07/18 02:27:41;;;;;;;1.58;1.40;;;;;;;;;;6152505;23;20160;-91
2023/07/18 02:30:12;;;;;;;1.92;1.58;;;;;;;;;;6152188;23;20196;-92
2023/07/18 02:32:40;;;;;;;1.67;1.25;;;;;;;;;;6152898;23;20177;-90
2023/07/18 02:35:08;;;;;;;2.92;1.30;;;;;;;;;;6152167;23;20163;-90
2023/07/18 02:37:36;;;;;;;0.98;0.95;;;;;;;;;;6151739;23;20195;-91
2023/07/18 02:40:09;;;;;;;2.05;1.35;;;;;;;;;;6151687;23;20191;-93
2023/07/18 02:42:36;;;;;;;1.10;1.10;;;;;;;;;;6151488;23;20152;-92
2023/07/18 02:45:06;;;;;;;0.95;0.95;;;;;;;;;;6151805;23;20148;-92
2023/07/18 02:47:35;;;;;;;1.00;1.00;;;;;;;;;;6151690;23;20168;-91
2023/07/18 02:50:02;;;;;;;2.00;1.55;;;;;;;;;;6152563;23;20184;-91
2023/07/18 02:52:30;;;;;;;1.45;1.35;;;;;;;;;;6153369;23;20223;-92
2023/07/18 02:54:58;;;;;;;1.35;1.25;;;;;;;;;;6153032;23;20171;-93
2023/07/18 02:57:25;;;;;;;1.45;1.35;;;;;;;;;;6152952;23;20214;-93
2023/07/18 02:59:53;;;;;;;1.70;1.58;;;;;;;;;;6152779;23;20180;-93
2023/07/18 03:02:20;;;;;;;3.13;1.50;;;;;;;;;;6153139;23;20180;-93
2023/07/18 03:04:50;;;;;;;1.15;1.08;;;;;;;;;;6152004;23;20180;-92
2023/07/18 03:07:18;;;;;;;1.20;1.10;;;;;;;;;;6152148;23;20182;-93
2023/07/18 03:09:46;;;;;;;1.23;1.13;;;;;;;;;;6153095;23;20231;-93
2023/07/18 03:12:14;;;;;;;1.30;1.20;;;;;;;;;;6153501;23;20167;-93
2023/07/18 03:14:41;;;;;;;1.25;1.15;;;;;;;;;;6150574;23;20180;-95
2023/07/18 03:17:09;;;;;;;1.25;1.15;;;;;;;;;;6148691;23;20235;-95
2023/07/18 03:19:37;;;;;;;1.30;1.10;;;;;;;;;;6150375;23;20180;-94
2023/07/18 03:22:06;;;;;;;1.20;1.00;;;;;;;;;;6150469;23;20175;-95
2023/07/18 03:24:35;;;;;;;1.25;1.15;;;;;;;;;;6148717;23;20172;-94
2023/07/18 03:27:04;;;;;;;1.80;1.17;;;;;;;;;;6148481;23;20620;-95
2023/07/18 03:29:31;;;;;;;1.10;1.10;;;;;;;;;;6148106;23;20160;-95
2023/07/18 03:32:00;;;;;;;1.23;1.02;;;;;;;;;;6148917;23;20211;-94
2023/07/18 03:34:28;;;;;;;1.23;1.13;;;;;;;;;;6151107;23;20212;-94
2023/07/18 03:36:56;;;;;;;1.65;1.50;;;;;;;;;;6149877;23;20192;-95
2023/07/18 03:39:25;;;;;;;1.85;1.52;;;;;;;;;;6151536;23;20171;-94
2023/07/18 03:41:53;;;;;;;3.05;1.77;;;;;;;;;;6151985;23;20172;-94
2023/07/18 03:44:20;;;;;;;2.25;1.75;;;;;;;;;;6148822;23;20172;-93
2023/07/18 03:46:48;;;;;;;1.70;1.40;;;;;;;;;;6148748;23;20167;-94
2023/07/18 03:49:16;;;;;;;1.65;1.55;;;;;;;;;;6150040;23;20195;-94
2023/07/18 03:51:44;;;;;;;1.40;1.30;;;;;;;;;;6151177;23;20183;-94
2023/07/18 03:54:12;;;;;;;0.90;0.85;;;;;;;;;;6145588;23;20176;-95
2023/07/18 03:56:41;;;;;;;1.27;1.23;;;;;;;;;;6145741;23;20202;-95
2023/07/18 03:59:08;;;;;;;2.05;1.85;;;;;;;;;;6147241;23;20179;-94
2023/07/18 04:01:36;;;;;;;3.17;2.28;;;;;;;;;;6148038;23;20196;-95
2023/07/18 04:04:04;;;;;;;2.42;1.60;;;;;;;;;;6149589;23;20172;-95
2023/07/18 04:06:32;;;;;;;4.25;3.22;;;;;;;;;;6147962;23;20179;-94
2023/07/18 04:09:00;;;;;;;1.70;1.60;;;;;;;;;;6148960;23;20179;-94
2023/07/18 04:11:27;;;;;;;1.58;1.38;;;;;;;;;;6148363;23;20201;-94
2023/07/18 04:13:56;;;;;;;1.50;1.40;;;;;;;;;;6148956;23;20168;-95
2023/07/18 04:16:24;;;;;;;1.42;1.33;;;;;;;;;;6149032;23;20203;-96
2023/07/18 04:18:52;;;;;;;1.35;1.33;;;;;;;;;;6149901;23;20163;-94
2023/07/18 04:21:19;;;;;;;1.75;1.20;;;;;;;;;;6148447;23;20196;-95
2023/07/18 04:23:47;;;;;;;2.17;1.85;;;;;;;;;;6143896;23;20176;-93
2023/07/18 04:26:15;;;;;;;2.47;1.90;;;;;;;;;;6145865;23;20175;-93
2023/07/18 04:28:42;;;;;;;2.22;2.13;;;;;;;;;;6150111;23;20163;-92
2023/07/18 04:31:13;;;;;;;1.77;1.65;;;;;;;;;;6151491;23;20191;-94
2023/07/18 04:33:41;;;;;;;3.03;1.95;;;;;;;;;;6147957;23;20183;-94
2023/07/18 04:36:09;;;;;;;2.10;1.92;;;;;;;;;;6146818;23;20175;-95
2023/07/18 04:38:37;;;;;;;2.80;2.00;;;;;;;;;;6147373;23;20196;-93
2023/07/18 04:41:05;;;;;;;2.45;1.88;;;;;;;;;;6146613;23;20207;-94
2023/07/18 04:43:33;;;;;;;2.28;2.08;;;;;;;;;;6139863;23;20172;-94
2023/07/18 04:46:00;;;;;;;2.08;1.95;;;;;;;;;;6142641;23;20245;-94
2023/07/18 04:48:29;;;;;;;1.92;1.73;;;;;;;;;;6145879;23;20175;-94
2023/07/18 04:51:00;;;;;;;2.38;2.13;;;;;;;;;;6145961;23;20195;-93
2023/07/18 04:53:28;;;;;;;1.88;1.70;;;;;;;;;;6147178;23;20147;-94
2023/07/18 04:55:56;;;;;;;1.58;1.48;;;;;;;;;;6148189;23;20179;-94
2023/07/18 04:58:25;;;;;;;1.83;1.73;;;;;;;;;;6145696;23;20196;-93
2023/07/18 05:00:53;;;;;;;1.88;1.77;;;;;;;;;;6146380;23;20198;-94
2023/07/18 05:03:21;;;;;;;2.17;2.00;;;;;;;;;;6150572;23;20176;-93
2023/07/18 05:05:50;;;;;;;2.92;2.72;;;;;;;;;;6147577;23;20176;-94
2023/07/18 05:08:18;;;;;;;3.65;2.30;;;;;;;;;;6143706;23;20246;-94
2023/07/18 05:10:46;;;;;;;2.25;2.05;;;;;;;;;;6142190;23;20199;-94
2023/07/18 05:13:13;;;;;;;1.80;1.70;;;;;;;;;;6143552;23;20172;-94
2023/07/18 05:15:43;;;;;;;3.05;2.17;;;;;;;;;;6143599;23;20184;-92
2023/07/18 05:18:11;;;;;;;2.55;1.60;;;;;;;;;;6142509;23;20190;-94
2023/07/18 05:20:38;;;;;;;4.03;2.22;;;;;;;;;;6142704;23;20191;-94
2023/07/18 05:23:08;;;;;;;2.22;1.77;;;;;;;;;;6142196;23;20176;-93
2023/07/18 05:25:36;;;;;;;1.90;1.75;;;;;;;;;;6140218;23;20172;-93
2023/07/18 05:28:04;;;;;;;2.97;2.05;;;;;;;;;;6144553;23;20172;-94
2023/07/18 05:30:31;;;;;;;1.98;1.88;;;;;;;;;;6141380;23;20191;-93
2023/07/18 05:32:59;;;;;;;2.08;1.88;;;;;;;;;;6142391;23;20183;-94
2023/07/18 05:35:27;;;;;;;3.40;2.50;;;;;;;;;;6145109;23;20198;-95
2023/07/18 05:37:54;;;;;;;2.15;1.95;;;;;;;;;;6143878;23;20196;-94
2023/07/18 05:40:23;;;;;;;4.57;2.13;;;;;;;;;;6144300;23;20191;-93
2023/07/18 05:42:51;;;;;;;2.25;2.08;;;;;;;;;;6151219;23;20167;-91
2023/07/18 05:45:19;;;;;;;2.58;2.13;;;;;;;;;;6151144;23;20159;-94
2023/07/18 05:47:46;;;;;;;2.30;2.10;;;;;;;;;;6151018;23;20167;-95
2023/07/18 05:50:14;;;;;;;2.25;2.05;;;;;;;;;;6150646;23;20187;-93
2023/07/18 05:52:42;;;;;;;2.75;2.50;;;;;;;;;;6151175;23;20172;-95
2023/07/18 05:55:12;;;;;;;2.90;2.70;;;;;;;;;;6152109;23;20164;-94
2023/07/18 05:57:41;;;;;;;2.50;2.30;;;;;;;;;;6153371;23;20172;-95
2023/07/18 06:00:11;;;;;;;2.88;2.28;;;;;;;;;;6153353;23;20172;-94
2023/07/18 06:02:39;;;;;;;2.55;2.05;;;;;;;;;;6153935;23;20148;-94
2023/07/18 06:05:07;;;;;;;2.88;2.63;;;;;;;;;;6153082;23;20163;-95
2023/07/18 06:07:35;;;;;;;1.20;1.20;;;;;;;;;;6153819;23;20200;-94
2023/07/18 06:10:03;;;;;;;2.30;2.00;;;;;;;;;;6153476;23;20164;-93
2023/07/18 06:12:31;;;;;;;2.47;2.28;;;;;;;;;;6153705;23;20203;-94
2023/07/18 06:15:00;;;;;;;2.03;1.90;;;;;;;;;;6152779;23;20159;-95
2023/07/18 06:17:27;;;;;;;1.60;1.50;;;;;;;;;;6153547;23;20191;-94
2023/07/18 06:19:55;;;;;;;1.60;1.50;;;;;;;;;;6152950;23;20246;-95
2023/07/18 06:22:23;;;;;;;2.20;1.80;;;;;;;;;;6153587;23;20159;-93
2023/07/18 06:24:51;;;;;;;2.60;1.83;;;;;;;;;;6153524;23;20159;-93
2023/07/18 06:27:18;;;;;;;2.35;2.13;;;;;;;;;;6153609;23;20152;-94
2023/07/18 06:29:46;;;;;;;2.20;2.00;;;;;;;;;;6153227;23;20183;-94
2023/07/18 06:32:15;;;;;;;2.55;2.35;;;;;;;;;;6153393;23;20210;-94
2023/07/18 06:34:44;;;;;;;2.47;2.28;;;;;;;;;;6153541;23;20180;-94
2023/07/18 06:37:12;;;;;;;2.13;1.92;;;;;;;;;;6153517;23;20151;-93
2023/07/18 06:39:39;;;;;;;2.50;1.90;;;;;;;;;;6152982;23;20187;-95
2023/07/18 06:42:09;;;;;;;2.70;2.10;;;;;;;;;;6153647;23;20159;-94
2023/07/18 06:44:36;;;;;;;2.13;1.88;;;;;;;;;;6153079;23;20152;-94
2023/07/18 06:47:05;;;;;;;2.22;2.10;;;;;;;;;;6153317;23;20170;-93
2023/07/18 06:49:34;;;;;;;1.80;1.70;;;;;;;;;;6153145;23;20148;-94
2023/07/18 06:52:01;;;;;;;2.75;2.33;;;;;;;;;;6153369;23;20163;-92
2023/07/18 06:54:30;;;;;;;1.80;1.70;;;;;;;;;;6153119;23;20160;-93
2023/07/18 06:56:58;;;;;;;3.25;1.77;;;;;;;;;;6153224;23;20160;-94
2023/07/18 06:59:25;;;;;;;4.10;2.00;;;;;;;;;;6153137;23;20188;-93
2023/07/18 07:02:16;;;;;;;1.77;1.67;;;;;;;;;;6153305;23;20183;-94
2023/07/18 07:04:44;;;;;;;2.15;1.95;;;;;;;;;;6151506;23;20198;-85
2023/07/18 07:07:12;;;;;;;1.77;1.67;;;;;;;;;;6155749;23;20745;-85
2023/07/18 07:09:39;;;;;;;2.25;1.70;;;;;;;;;;6155666;23;20198;-85
2023/07/18 07:12:09;;;;;;;2.22;1.95;;;;;;;;;;6156214;23;20535;-85
2023/07/18 07:14:36;;;;;;;2.15;1.95;;;;;;;;;;6132746;23;20787;-85
2023/07/18 07:17:04;;;;;;;2.47;1.60;;;;;;;;;;6126320;23;20168;-86
2023/07/18 07:19:31;;;;;;;1.40;1.25;;;;;;;;;;6125953;23;20196;-85
2023/07/18 07:22:00;;;;;;;3.17;2.30;;;;;;;;;;6126721;23;20211;-85
2023/07/18 07:24:27;;;;;;;1.80;1.70;;;;;;;;;;6125942;23;20227;-86
2023/07/18 07:26:55;;;;;;;4.35;1.83;;;;;;;;;;6125652;23;20210;-86
2023/07/18 07:29:23;;;;;;;1.95;1.77;;;;;;;;;;6125957;23;20238;-85
2023/07/18 07:31:50;;;;;;;3.10;2.00;;;;;;;;;;6126421;23;20543;-86
2023/07/18 07:34:18;;;;;;;1.80;1.42;;;;;;;;;;6126008;23;20219;-85
2023/07/18 07:36:45;;;;;;;1.30;1.20;;;;;;;;;;6126060;23;20524;-86
2023/07/18 07:39:14;;;;;;;3.47;1.60;;;;;;;;;;6126377;23;20726;-85
2023/07/18 07:41:41;;;;;;;1.80;1.70;;;;;;;;;;6126848;23;20517;-86
2023/07/18 07:44:09;;;;;;;2.38;1.65;;;;;;;;;;6126189;23;20270;-86
2023/07/18 07:46:36;;;;;;;2.33;1.50;;;;;;;;;;6126117;23;20207;-86
2023/07/18 07:49:04;;;;;;;1.42;1.33;;;;;;;;;;6125799;23;20203;-86
2023/07/18 07:51:31;;;;;;;1.30;1.20;;;;;;;;;;6125707;23;20176;-85
2023/07/18 07:53:59;;;;;;;4.35;1.30;;;;;;;;;;6124908;23;20212;-85
2023/07/18 07:56:28;;;;;;;1.98;1.20;;;;;;;;;;6125116;23;20255;-85
2023/07/18 07:58:55;;;;;;;2.60;1.60;;;;;;;;;;6124917;23;20278;-84
2023/07/18 08:01:23;;;;;;;4.43;1.90;;;;;;;;;;6125515;23;20203;-85
2023/07/18 08:03:51;;;;;;;1.73;1.20;;;;;;;;;;6125468;23;20231;-85
2023/07/18 08:06:18;;;;;;;2.15;1.50;;;;;;;;;;6124219;23;20258;-84
2023/07/18 08:08:45;;;;;;;1.20;1.10;;;;;;;;;;6124760;23;20685;-85
2023/07/18 08:11:13;;;;;;;1.25;1.15;;;;;;;;;;6123226;23;20182;-85
2023/07/18 08:13:42;;;;;;;1.58;1.23;;;;;;;;;;6124964;23;20246;-86
2023/07/18 08:16:09;;;;;;;2.15;1.48;;;;;;;;;;6124897;23;20210;-85
2023/07/18 08:18:37;;;;;;;1.48;1.38;;;;;;;;;;6125932;23;20267;-85
2023/07/18 08:21:04;;;;;;;1.08;0.98;;;;;;;;;;6126922;23;20227;-85
2023/07/18 08:23:32;;;;;;;2.67;1.50;;;;;;;;;;6127206;23;20200;-85
2023/07/18 08:25:59;;;;;;;1.60;1.50;;;;;;;;;;6126848;23;20203;-85
2023/07/18 08:28:26;;;;;;;1.08;0.90;;;;;;;;;;6127172;23;20182;-85
2023/07/18 08:30:55;;;;;;;1.33;1.13;;;;;;;;;;6127547;23;20204;-86
2023/07/18 08:33:24;;;;;;;2.72;1.42;;;;;;;;;;6126456;23;20196;-86
2023/07/18 08:35:53;;;;;;;5.90;1.88;;;;;;;;;;6127737;23;20502;-85
2023/07/18 08:38:20;;;;;;;1.38;1.27;;;;;;;;;;6127244;23;20231;-86
2023/07/18 08:40:49;;;;;;;2.60;1.55;;;;;;;;;;6127249;23;20234;-86
2023/07/18 08:43:18;;;;;;;1.25;1.23;;;;;;;;;;6127179;23;20677;-86
2023/07/18 08:45:46;;;;;;;1.15;1.05;;;;;;;;;;6127159;23;20179;-85
2023/07/18 08:48:14;;;;;;;1.45;1.35;;;;;;;;;;6126982;23;20176;-85
2023/07/18 08:50:42;;;;;;;2.03;1.50;;;;;;;;;;6126196;23;20251;-86
2023/07/18 08:53:10;;;;;;;4.20;1.90;;;;;;;;;;6126973;23;20200;-85
2023/07/18 08:55:37;;;;;;;1.92;1.48;;;;;;;;;;6127109;23;20258;-85
2023/07/18 08:58:05;;;;;;;1.38;1.27;;;;;;;;;;6126506;23;20214;-86
2023/07/18 09:00:32;;;;;;;1.10;1.10;;;;;;;;;;6125354;23;20270;-86
2023/07/18 09:03:00;;;;;;;1.60;1.50;;;;;;;;;;6126438;23;20579;-84
2023/07/18 09:05:34;;;;;;;3.00;1.40;;;;;;;;;;6125380;23;20262;-85
2023/07/18 09:08:03;;;;;;;1.52;1.20;;;;;;;;;;6126336;23;20195;-85
2023/07/18 09:10:31;;;;;;;1.50;1.23;;;;;;;;;;6125792;23;20178;-85
2023/07/18 09:13:02;;;;;;;1.77;1.17;;;;;;;;;;6126448;23;20630;-85
2023/07/18 09:15:31;;;;;;;1.20;1.08;;;;;;;;;;6126252;23;20211;-85
2023/07/18 09:18:02;;;;;;;2.10;1.60;;;;;;;;;;6125877;23;20578;-86
2023/07/18 09:20:32;;;;;;;2.33;1.95;;;;;;;;;;6126272;23;20184;-85
2023/07/18 09:23:03;;;;;;;1.27;1.17;;;;;;;;;;6126530;23;20183;-85
2023/07/18 09:25:31;;;;;;;1.83;1.20;;;;;;;;;;6126520;23;20587;-86
2023/07/18 09:27:59;;;;;;;1.70;1.13;;;;;;;;;;6125799;23;20255;-86
2023/07/18 09:30:31;;;;;;;2.90;1.63;;;;;;;;;;6125348;23;20254;-85
2023/07/18 09:32:59;;;;;;;2.10;1.42;;;;;;;;;;6125761;23;20247;-85
2023/07/18 09:35:28;;;;;;;2.17;1.35;;;;;;;;;;6126061;23;20349;-86
2023/07/18 09:37:58;;;;;;;1.23;1.13;;;;;;;;;;6126383;23;20203;-86
2023/07/18 09:40:27;;;;;;;1.20;1.02;;;;;;;;;;6125956;23;20234;-86
2023/07/18 09:42:55;;;;;;;1.40;1.00;;;;;;;;;;6125601;23;20259;-85
2023/07/18 09:45:24;;;;;;;1.10;1.10;;;;;;;;;;6125518;23;20222;-86
2023/07/18 09:47:53;;;;;;;1.17;1.13;;;;;;;;;;6126273;23;20567;-86
2023/07/18 09:50:20;;;;;;;1.15;1.10;;;;;;;;;;6125650;23;20259;-86
2023/07/18 09:52:50;;;;;;;2.05;1.30;;;;;;;;;;6125569;23;20203;-86
2023/07/18 09:55:26;;;;;;;1.45;1.35;;;;;;;;;;6126205;23;20160;-86
2023/07/18 09:57:56;;;;;;;1.30;1.20;;;;;;;;;;6126187;23;20549;-86
2023/07/18 10:00:25;;;;;;;1.50;1.40;;;;;;;;;;6125632;23;20280;-86
2023/07/18 10:02:54;;;;;;;2.47;1.20;;;;;;;;;;6125986;23;20658;-86
2023/07/18 10:05:21;;;;;;;1.10;1.10;;;;;;;;;;6125712;23;20209;-86
2023/07/18 10:07:49;;;;;;;1.60;1.40;;;;;;;;;;6125382;23;20176;-85
2023/07/18 10:10:17;;;;;;;1.20;1.13;;;;;;;;;;6125478;23;20250;-86
2023/07/18 10:13:01;;;;;;;2.08;1.20;;;;;;;;;;6125645;23;20172;-86
2023/07/18 10:15:30;;;;;;;1.67;1.52;;;;;;;;;;6126082;23;20244;-87
2023/07/18 10:18:17;;;;;;;1.08;1.08;;;;;;;;;;6125426;23;20180;-87
2023/07/18 10:20:58;;;;;;;1.33;1.23;;;;;;;;;;6125498;23;20215;-86
2023/07/18 10:23:41;;;;;;;2.55;1.13;;;;;;;;;;6125482;23;20217;-86
2023/07/18 10:26:09;;;;;;;1.35;1.25;;;;;;;;;;6125435;23;20175;-86
2023/07/18 10:28:48;;;;;;;1.42;1.33;;;;;;;;;;6125538;23;20679;-87
2023/07/18 10:31:29;;;;;;;1.80;1.35;;;;;;;;;;6125805;23;20178;-86
2023/07/18 10:34:10;;;;;;;2.35;1.83;;;;;;;;;;6125258;23;20583;-86
2023/07/18 10:36:39;;;;;;;2.25;1.40;;;;;;;;;;6125262;23;20187;-86
2023/07/18 10:39:12;;;;;;;1.27;1.27;;;;;;;;;;6125071;23;20176;-86
2023/07/18 10:41:44;;;;;;;1.00;1.00;;;;;;;;;;6125443;23;20180;-86
2023/07/18 10:44:13;;;;;;;1.33;1.30;;;;;;;;;;6125509;23;20718;-87
2023/07/18 10:46:41;;;;;;;1.35;1.25;;;;;;;;;;6125447;23;20186;-86
2023/07/18 10:49:09;;;;;;;2.72;1.23;;;;;;;;;;6125036;23;20254;-86
2023/07/18 10:51:37;;;;;;;0.98;0.90;;;;;;;;;;6125243;23;20204;-87
2023/07/18 10:54:05;;;;;;;1.63;1.10;;;;;;;;;;6124955;23;20191;-86
2023/07/18 10:56:32;;;;;;;0.90;0.90;;;;;;;;;;6125503;23;20651;-87
2023/07/18 10:59:00;;;;;;;1.05;0.90;;;;;;;;;;6125298;23;20179;-87
2023/07/18 11:01:29;;;;;;;0.90;0.90;;;;;;;;;;6125330;23;20203;-86
2023/07/18 11:03:57;;;;;;;0.90;0.90;;;;;;;;;;6125566;23;20666;-87
2023/07/18 11:06:25;;;;;;;3.78;1.45;;;;;;;;;;6125347;23;20188;-86
2023/07/18 11:08:52;;;;;;;1.20;1.10;;;;;;;;;;6125132;23;20255;-86
2023/07/18 11:11:20;;;;;;;2.25;1.38;;;;;;;;;;6126290;23;20235;-86
2023/07/18 11:13:47;;;;;;;1.13;1.02;;;;;;;;;;6126127;23;20192;-87
2023/07/18 11:16:16;;;;;;;1.40;1.38;;;;;;;;;;6125889;23;20570;-86
2023/07/18 11:18:48;;;;;;;1.35;1.25;;;;;;;;;;6125251;23;20701;-87
2023/07/18 11:21:18;;;;;;;1.38;1.27;;;;;;;;;;6125501;23;20215;-87
2023/07/18 11:23:47;;;;;;;1.65;1.55;;;;;;;;;;6126025;23;20195;-87
2023/07/18 11:26:16;;;;;;;1.70;1.15;;;;;;;;;;6125435;23;20262;-87
2023/07/18 11:28:46;;;;;;;1.13;1.02;;;;;;;;;;6125161;23;20226;-88
2023/07/18 11:31:24;;;;;;;1.30;1.25;;;;;;;;;;6125990;23;20171;-87
2023/07/18 11:41:36;;;;;;;1.13;1.10;;;;;;;;;;6157623;23;20187;-92
2023/07/18 11:44:05;;;;;;;2.50;1.30;;;;;;;;;;6150655;23;20201;-92
2023/07/18 11:46:41;;;;;;;1.42;1.33;;;;;;;;;;6127808;23;20200;-91
2023/07/18 11:49:09;;;;;;;2.92;1.35;;;;;;;;;;6128421;23;20210;-92
2023/07/18 11:51:38;;;;;;;1.38;1.27;;;;;;;;;;6127544;23;20180;-91
2023/07/18 11:54:06;;;;;;;1.50;1.10;;;;;;;;;;6128731;23;20202;-90
2023/07/18 11:56:35;;;;;;;2.28;1.60;;;;;;;;;;6130196;23;20199;-90
2023/07/18 11:59:03;;;;;;;1.20;1.10;;;;;;;;;;6129622;23;20178;-90
2023/07/18 12:01:32;;;;;;;1.50;1.40;;;;;;;;;;6130525;23;20275;-91
2023/07/18 12:03:59;;;;;;;2.13;1.50;;;;;;;;;;6130877;23;20274;-92
2023/07/18 12:06:27;;;;;;;1.50;1.40;;;;;;;;;;6131041;23;20200;-91
2023/07/18 12:08:54;;;;;;;1.33;1.23;;;;;;;;;;6130237;23;20203;-91
2023/07/18 12:11:23;;;;;;;2.30;1.50;;;;;;;;;;6130382;23;20211;-92
2023/07/18 12:13:51;;;;;;;1.25;1.05;;;;;;;;;;6130251;23;20250;-92
2023/07/18 12:16:20;;;;;;;1.20;1.10;;;;;;;;;;6129457;23;20566;-91
2023/07/18 12:18:47;;;;;;;1.55;1.27;;;;;;;;;;6129980;23;20207;-91
2023/07/18 12:21:15;;;;;;;0.90;0.90;;;;;;;;;;6128438;23;20250;-92
2023/07/18 12:23:42;;;;;;;1.25;1.20;;;;;;;;;;6130521;23;20180;-92
2023/07/18 12:26:10;;;;;;;1.38;1.00;;;;;;;;;;6129718;23;20199;-92
2023/07/18 12:28:37;;;;;;;1.13;1.13;;;;;;;;;;6129714;23;20239;-92
2023/07/18 12:31:07;;;;;;;1.50;1.27;;;;;;;;;;6129588;23;20172;-91
2023/07/18 12:33:35;;;;;;;1.58;1.48;;;;;;;;;;6129014;23;20172;-91
2023/07/18 12:36:02;;;;;;;1.30;1.20;;;;;;;;;;6129562;23;20569;-92
2023/07/18 12:38:30;;;;;;;1.55;1.45;;;;;;;;;;6128741;23;20203;-91
2023/07/18 12:40:57;;;;;;;1.67;1.50;;;;;;;;;;6128630;23;20195;-91
2023/07/18 12:43:25;;;;;;;4.20;3.78;;;;;;;;;;6128225;23;20227;-91
2023/07/18 12:45:53;;;;;;;2.90;2.47;;;;;;;;;;6128175;23;20198;-90
2023/07/18 12:48:22;;;;;;;3.45;1.90;;;;;;;;;;6128651;23;20227;-91
2023/07/18 12:50:50;;;;;;;1.52;1.40;;;;;;;;;;6128228;23;20493;-90
2023/07/18 12:53:17;;;;;;;1.58;1.42;;;;;;;;;;6128266;23;20184;-91
2023/07/18 12:55:45;;;;;;;1.45;1.35;;;;;;;;;;6128352;23;20274;-91
2023/07/18 12:58:12;;;;;;;1.30;1.20;;;;;;;;;;6129072;23;20192;-91
2023/07/18 13:00:40;;;;;;;1.55;1.45;;;;;;;;;;6128286;23;20571;-91
2023/07/18 13:03:08;;;;;;;1.52;1.42;;;;;;;;;;6127454;23;20199;-91
2023/07/18 13:05:36;;;;;;;1.52;1.42;;;;;;;;;;6127691;23;20227;-91
2023/07/18 13:08:04;;;;;;;1.75;1.60;;;;;;;;;;6127895;23;20183;-90
2023/07/18 13:10:32;;;;;;;1.98;1.88;;;;;;;;;;6127449;23;20258;-91
2023/07/18 13:12:59;;;;;;;1.90;1.60;;;;;;;;;;6128090;23;20247;-91
2023/07/18 13:15:27;;;;;;;1.60;1.50;;;;;;;;;;6127869;23;20226;-91
2023/07/18 13:17:54;;;;;;;2.53;1.50;;;;;;;;;;6128210;23;20255;-90
2023/07/18 13:20:22;;;;;;;2.97;1.98;;;;;;;;;;6126806;23;20210;-91
2023/07/18 13:22:51;;;;;;;2.00;1.80;;;;;;;;;;6126561;23;20238;-91
2023/07/18 13:25:18;;;;;;;1.58;1.10;;;;;;;;;;6126342;23;20231;-90
2023/07/18 13:27:46;;;;;;;2.78;1.45;;;;;;;;;;6128018;23;20513;-91
2023/07/18 13:30:14;;;;;;;1.20;1.20;;;;;;;;;;6127555;23;20212;-91
2023/07/18 13:32:42;;;;;;;1.40;1.30;;;;;;;;;;6127742;23;20511;-91
2023/07/18 13:35:10;;;;;;;1.92;1.40;;;;;;;;;;6127733;23;20278;-91
2023/07/18 13:37:37;;;;;;;2.53;1.60;;;;;;;;;;6127709;23;20212;-91
2023/07/18 13:40:08;;;;;;;1.50;1.40;;;;;;;;;;6127376;23;20227;-91
2023/07/18 13:42:36;;;;;;;1.67;1.42;;;;;;;;;;6127310;23;20278;-91
2023/07/18 13:45:07;;;;;;;1.65;1.55;;;;;;;;;;6126962;23;20579;-91
2023/07/18 13:47:35;;;;;;;1.65;1.55;;;;;;;;;;6127427;23;20160;-91
2023/07/18 13:50:02;;;;;;;1.75;1.50;;;;;;;;;;6127587;23;20180;-91
2023/07/18 13:52:30;;;;;;;1.65;1.55;;;;;;;;;;6127193;23;20183;-91
2023/07/18 13:54:57;;;;;;;1.48;1.38;;;;;;;;;;6127826;23;20278;-91
2023/07/18 13:57:26;;;;;;;2.25;1.50;;;;;;;;;;6128056;23;20254;-91
2023/07/18 13:59:53;;;;;;;2.15;2.05;;;;;;;;;;6127421;23;20233;-91
2023/07/18 14:02:21;;;;;;;1.50;1.40;;;;;;;;;;6127615;23;20214;-91
2023/07/18 14:04:49;;;;;;;1.63;1.52;;;;;;;;;;6126768;23;20279;-91
2023/07/18 14:07:16;;;;;;;1.65;1.52;;;;;;;;;;6127023;23;20176;-91
2023/07/18 14:09:44;;;;;;;2.33;1.65;;;;;;;;;;6126778;23;20571;-91
2023/07/18 14:12:12;;;;;;;1.67;1.58;;;;;;;;;;6127648;23;20251;-91
2023/07/18 14:14:41;;;;;;;1.92;1.55;;;;;;;;;;6127176;23;20332;-91
2023/07/18 14:17:08;;;;;;;1.55;1.45;;;;;;;;;;6126723;23;20329;-91
2023/07/18 14:19:36;;;;;;;1.60;1.50;;;;;;;;;;6127335;23;20187;-91
2023/07/18 14:22:04;;;;;;;2.78;2.00;;;;;;;;;;6127183;23;20207;-90
2023/07/18 14:24:31;;;;;;;1.30;1.20;;;;;;;;;;6126914;23;20590;-90
2023/07/18 14:26:59;;;;;;;1.92;1.83;;;;;;;;;;6127495;23;20204;-90
2023/07/18 14:29:26;;;;;;;1.45;1.35;;;;;;;;;;6126644;23;20180;-92
2023/07/18 14:31:55;;;;;;;1.50;1.40;;;;;;;;;;6127856;23;20179;-91
2023/07/18 14:34:23;;;;;;;1.85;1.65;;;;;;;;;;6127450;23;20227;-91
2023/07/18 14:36:50;;;;;;;2.83;1.65;;;;;;;;;;6127614;23;20571;-91
2023/07/18 14:39:18;;;;;;;1.95;1.85;;;;;;;;;;6127083;23;20211;-91
2023/07/18 14:41:45;;;;;;;1.70;1.60;;;;;;;;;;6127710;23;20212;-91
2023/07/18 14:44:13;;;;;;;1.67;1.30;;;;;;;;;;6127541;23;20234;-91
2023/07/18 14:46:41;;;;;;;1.60;1.50;;;;;;;;;;6126953;23;20184;-91
2023/07/18 14:49:10;;;;;;;1.83;1.73;;;;;;;;;;6126903;23;20517;-91
2023/07/18 14:51:37;;;;;;;2.05;1.80;;;;;;;;;;6127006;23;20185;-91
2023/07/18 14:54:05;;;;;;;1.90;1.80;;;;;;;;;;6127251;23;20196;-91
2023/07/18 14:56:33;;;;;;;1.60;1.50;;;;;;;;;;6127026;23;20179;-90
2023/07/18 14:59:01;;;;;;;2.08;1.88;;;;;;;;;;6127381;23;20498;-91